sensor_id;sensor_type;location;lat;lon;timestamp;P1;durP1;ratioP1;P2;durP2;ratioP2
23716;SDS011;22094;52.130;5.598;2023-04-24T00:01:27;2.78;;;2.58;;
23716;SDS011;22094;52.130;5.598;2023-04-24T00:03:54;3.38;;;2.50;;
23716;SDS011;22094;52.130;5.598;2023-04-24T00:06:24;3.40;;;2.90;;
23716;SDS011;22094;52.130;5.598;2023-04-24T00:08:58;3.50;;;3.20;;
23716;SDS011;22094;52.130;5.598;2023-04-24T00:11:27;6.57;;;4.85;;
23716;SDS011;22094;52.130;5.598;2023-04-24T00:13:53;5.97;;;4.88;;
23716;SDS011;22094;52.130;5.598;2023-04-24T00:16:18;6.40;;;5.80;;
23716;SDS011;22094;52.130;5.598;2023-04-24T00:18:44;7.85;;;6.90;;
23716;SDS011;22094;52.130;5.598;2023-04-24T00:21:10;8.20;;;7.38;;
23716;SDS011;22094;52.130;5.598;2023-04-24T00:23:36;7.95;;;7.15;;
23716;SDS011;22094;52.130;5.598;2023-04-24T00:26:01;8.63;;;7.70;;
23716;SDS011;22094;52.130;5.598;2023-04-24T00:28:27;10.13;;;8.70;;
23716;SDS011;22094;52.130;5.598;2023-04-24T00:30:53;8.68;;;7.88;;
23716;SDS011;22094;52.130;5.598;2023-04-24T00:33:19;9.40;;;8.45;;
23716;SDS011;22094;52.130;5.598;2023-04-24T00:35:45;9.23;;;8.10;;
23716;SDS011;22094;52.130;5.598;2023-04-24T00:38:10;8.88;;;7.47;;
23716;SDS011;22094;52.130;5.598;2023-04-24T00:40:36;8.88;;;7.95;;
23716;SDS011;22094;52.130;5.598;2023-04-24T00:43:01;9.88;;;7.75;;
23716;SDS011;22094;52.130;5.598;2023-04-24T00:45:27;8.43;;;7.60;;
23716;SDS011;22094;52.130;5.598;2023-04-24T00:47:53;8.68;;;7.78;;
23716;SDS011;22094;52.130;5.598;2023-04-24T00:50:18;9.07;;;7.85;;
23716;SDS011;22094;52.130;5.598;2023-04-24T00:52:46;8.95;;;8.10;;
23716;SDS011;22094;52.130;5.598;2023-04-24T00:55:12;9.15;;;8.02;;
23716;SDS011;22094;52.130;5.598;2023-04-24T00:57:37;9.80;;;8.18;;
23716;SDS011;22094;52.130;5.598;2023-04-24T01:00:04;9.30;;;8.40;;
23716;SDS011;22094;52.130;5.598;2023-04-24T01:02:32;11.00;;;8.52;;
23716;SDS011;22094;52.130;5.598;2023-04-24T01:04:59;8.93;;;8.10;;
23716;SDS011;22094;52.130;5.598;2023-04-24T01:07:26;10.07;;;9.10;;
23716;SDS011;22094;52.130;5.598;2023-04-24T01:09:52;9.75;;;8.18;;
23716;SDS011;22094;52.130;5.598;2023-04-24T01:12:18;11.52;;;9.27;;
23716;SDS011;22094;52.130;5.598;2023-04-24T01:14:44;11.30;;;9.30;;
23716;SDS011;22094;52.130;5.598;2023-04-24T01:17:10;11.07;;;9.85;;
23716;SDS011;22094;52.130;5.598;2023-04-24T01:19:35;11.95;;;9.88;;
23716;SDS011;22094;52.130;5.598;2023-04-24T01:22:02;11.88;;;9.82;;
23716;SDS011;22094;52.130;5.598;2023-04-24T01:24:28;11.77;;;10.32;;
23716;SDS011;22094;52.130;5.598;2023-04-24T01:26:54;13.63;;;11.57;;
23716;SDS011;22094;52.130;5.598;2023-04-24T01:29:20;12.00;;;10.63;;
23716;SDS011;22094;52.130;5.598;2023-04-24T01:31:46;15.00;;;12.32;;
23716;SDS011;22094;52.130;5.598;2023-04-24T01:34:12;14.18;;;11.93;;
23716;SDS011;22094;52.130;5.598;2023-04-24T01:36:38;15.05;;;12.20;;
23716;SDS011;22094;52.130;5.598;2023-04-24T01:39:04;15.82;;;12.02;;
23716;SDS011;22094;52.130;5.598;2023-04-24T01:41:30;13.70;;;11.70;;
23716;SDS011;22094;52.130;5.598;2023-04-24T01:43:56;15.05;;;12.85;;
23716;SDS011;22094;52.130;5.598;2023-04-24T01:46:23;14.95;;;12.82;;
23716;SDS011;22094;52.130;5.598;2023-04-24T01:48:49;15.48;;;12.95;;
23716;SDS011;22094;52.130;5.598;2023-04-24T01:51:16;15.63;;;12.80;;
23716;SDS011;22094;52.130;5.598;2023-04-24T01:53:42;16.95;;;13.45;;
23716;SDS011;22094;52.130;5.598;2023-04-24T01:56:08;17.40;;;13.40;;
23716;SDS011;22094;52.130;5.598;2023-04-24T01:58:34;19.13;;;13.52;;
23716;SDS011;22094;52.130;5.598;2023-04-24T02:01:00;17.67;;;13.93;;
23716;SDS011;22094;52.130;5.598;2023-04-24T02:03:26;16.55;;;12.45;;
23716;SDS011;22094;52.130;5.598;2023-04-24T02:05:51;15.05;;;12.25;;
23716;SDS011;22094;52.130;5.598;2023-04-24T02:08:17;14.70;;;12.60;;
23716;SDS011;22094;52.130;5.598;2023-04-24T02:10:43;16.13;;;11.15;;
23716;SDS011;22094;52.130;5.598;2023-04-24T02:13:09;12.15;;;9.88;;
23716;SDS011;22094;52.130;5.598;2023-04-24T02:15:35;12.00;;;9.57;;
23716;SDS011;22094;52.130;5.598;2023-04-24T02:18:01;9.00;;;7.70;;
23716;SDS011;22094;52.130;5.598;2023-04-24T02:20:26;9.05;;;7.45;;
23716;SDS011;22094;52.130;5.598;2023-04-24T02:22:52;6.70;;;6.00;;
23716;SDS011;22094;52.130;5.598;2023-04-24T02:25:18;5.82;;;5.32;;
23716;SDS011;22094;52.130;5.598;2023-04-24T02:27:43;6.40;;;5.50;;
23716;SDS011;22094;52.130;5.598;2023-04-24T02:30:09;7.55;;;6.75;;
23716;SDS011;22094;52.130;5.598;2023-04-24T02:32:35;7.88;;;7.10;;
23716;SDS011;22094;52.130;5.598;2023-04-24T02:35:01;9.77;;;8.88;;
23716;SDS011;22094;52.130;5.598;2023-04-24T02:37:26;14.05;;;9.65;;
23716;SDS011;22094;52.130;5.598;2023-04-24T02:39:52;11.07;;;9.82;;
23716;SDS011;22094;52.130;5.598;2023-04-24T02:42:17;12.02;;;10.38;;
23716;SDS011;22094;52.130;5.598;2023-04-24T02:44:43;11.75;;;9.45;;
23716;SDS011;22094;52.130;5.598;2023-04-24T02:47:09;11.15;;;9.68;;
23716;SDS011;22094;52.130;5.598;2023-04-24T02:49:34;11.75;;;10.02;;
23716;SDS011;22094;52.130;5.598;2023-04-24T02:52:00;12.50;;;10.00;;
23716;SDS011;22094;52.130;5.598;2023-04-24T02:54:25;13.02;;;10.40;;
23716;SDS011;22094;52.130;5.598;2023-04-24T02:56:51;11.77;;;10.07;;
23716;SDS011;22094;52.130;5.598;2023-04-24T02:59:16;13.50;;;10.35;;
23716;SDS011;22094;52.130;5.598;2023-04-24T03:01:42;14.38;;;10.52;;
23716;SDS011;22094;52.130;5.598;2023-04-24T03:04:07;12.73;;;10.48;;
23716;SDS011;22094;52.130;5.598;2023-04-24T03:06:33;12.73;;;10.85;;
23716;SDS011;22094;52.130;5.598;2023-04-24T03:09:00;10.93;;;9.80;;
23716;SDS011;22094;52.130;5.598;2023-04-24T03:11:25;16.60;;;10.68;;
23716;SDS011;22094;52.130;5.598;2023-04-24T03:13:51;12.32;;;9.63;;
23716;SDS011;22094;52.130;5.598;2023-04-24T03:16:17;10.15;;;9.05;;
23716;SDS011;22094;52.130;5.598;2023-04-24T03:18:42;10.35;;;8.27;;
23716;SDS011;22094;52.130;5.598;2023-04-24T03:21:08;11.77;;;8.27;;
23716;SDS011;22094;52.130;5.598;2023-04-24T03:23:33;9.77;;;8.02;;
23716;SDS011;22094;52.130;5.598;2023-04-24T03:25:59;10.10;;;7.78;;
23716;SDS011;22094;52.130;5.598;2023-04-24T03:28:25;9.77;;;7.63;;
23716;SDS011;22094;52.130;5.598;2023-04-24T03:30:51;10.00;;;8.05;;
23716;SDS011;22094;52.130;5.598;2023-04-24T03:33:17;8.70;;;7.80;;
23716;SDS011;22094;52.130;5.598;2023-04-24T03:35:42;11.38;;;8.32;;
23716;SDS011;22094;52.130;5.598;2023-04-24T03:38:08;12.30;;;8.40;;
23716;SDS011;22094;52.130;5.598;2023-04-24T03:40:33;12.07;;;9.63;;
23716;SDS011;22094;52.130;5.598;2023-04-24T03:42:59;12.88;;;9.25;;
23716;SDS011;22094;52.130;5.598;2023-04-24T03:45:25;10.13;;;8.73;;
23716;SDS011;22094;52.130;5.598;2023-04-24T03:47:50;10.93;;;9.05;;
23716;SDS011;22094;52.130;5.598;2023-04-24T03:50:16;11.80;;;9.23;;
23716;SDS011;22094;52.130;5.598;2023-04-24T03:52:41;11.45;;;9.90;;
23716;SDS011;22094;52.130;5.598;2023-04-24T03:55:07;12.05;;;9.65;;
23716;SDS011;22094;52.130;5.598;2023-04-24T03:57:33;11.63;;;9.40;;
23716;SDS011;22094;52.130;5.598;2023-04-24T03:59:58;12.13;;;9.60;;
23716;SDS011;22094;52.130;5.598;2023-04-24T04:02:24;10.98;;;8.55;;
23716;SDS011;22094;52.130;5.598;2023-04-24T04:04:49;9.77;;;8.77;;
23716;SDS011;22094;52.130;5.598;2023-04-24T04:07:28;11.40;;;8.50;;
23716;SDS011;22094;52.130;5.598;2023-04-24T04:09:54;9.07;;;7.25;;
23716;SDS011;22094;52.130;5.598;2023-04-24T04:12:20;8.65;;;7.20;;
23716;SDS011;22094;52.130;5.598;2023-04-24T04:14:46;9.30;;;7.05;;
23716;SDS011;22094;52.130;5.598;2023-04-24T04:17:11;9.50;;;6.88;;
23716;SDS011;22094;52.130;5.598;2023-04-24T04:19:37;6.22;;;5.45;;
23716;SDS011;22094;52.130;5.598;2023-04-24T04:22:02;6.22;;;5.63;;
23716;SDS011;22094;52.130;5.598;2023-04-24T04:24:28;6.30;;;5.43;;
23716;SDS011;22094;52.130;5.598;2023-04-24T04:26:54;6.72;;;5.60;;
23716;SDS011;22094;52.130;5.598;2023-04-24T04:29:21;6.45;;;5.30;;
23716;SDS011;22094;52.130;5.598;2023-04-24T04:31:47;7.13;;;5.50;;
23716;SDS011;22094;52.130;5.598;2023-04-24T04:34:13;6.13;;;5.15;;
23716;SDS011;22094;52.130;5.598;2023-04-24T04:36:39;7.88;;;5.70;;
23716;SDS011;22094;52.130;5.598;2023-04-24T04:39:05;7.20;;;5.93;;
23716;SDS011;22094;52.130;5.598;2023-04-24T04:41:31;8.07;;;5.72;;
23716;SDS011;22094;52.130;5.598;2023-04-24T04:44:00;8.05;;;5.85;;
23716;SDS011;22094;52.130;5.598;2023-04-24T04:46:26;7.75;;;5.80;;
23716;SDS011;22094;52.130;5.598;2023-04-24T04:48:52;8.15;;;6.43;;
23716;SDS011;22094;52.130;5.598;2023-04-24T04:51:19;7.05;;;6.05;;
23716;SDS011;22094;52.130;5.598;2023-04-24T04:53:44;5.57;;;4.95;;
23716;SDS011;22094;52.130;5.598;2023-04-24T04:56:10;5.50;;;4.75;;
23716;SDS011;22094;52.130;5.598;2023-04-24T04:58:36;5.35;;;4.60;;
23716;SDS011;22094;52.130;5.598;2023-04-24T05:01:01;5.20;;;4.65;;
23716;SDS011;22094;52.130;5.598;2023-04-24T05:03:27;6.57;;;5.32;;
23716;SDS011;22094;52.130;5.598;2023-04-24T05:05:55;5.05;;;4.55;;
23716;SDS011;22094;52.130;5.598;2023-04-24T05:08:22;5.45;;;4.30;;
23716;SDS011;22094;52.130;5.598;2023-04-24T05:10:47;4.82;;;4.43;;
23716;SDS011;22094;52.130;5.598;2023-04-24T05:13:13;6.05;;;5.07;;
23716;SDS011;22094;52.130;5.598;2023-04-24T05:15:38;7.00;;;4.93;;
23716;SDS011;22094;52.130;5.598;2023-04-24T05:18:04;6.50;;;4.97;;
23716;SDS011;22094;52.130;5.598;2023-04-24T05:20:30;6.50;;;5.60;;
23716;SDS011;22094;52.130;5.598;2023-04-24T05:22:55;7.15;;;5.75;;
23716;SDS011;22094;52.130;5.598;2023-04-24T05:25:21;6.75;;;5.80;;
23716;SDS011;22094;52.130;5.598;2023-04-24T05:27:46;6.55;;;5.45;;
23716;SDS011;22094;52.130;5.598;2023-04-24T05:30:12;9.68;;;6.40;;
23716;SDS011;22094;52.130;5.598;2023-04-24T05:32:38;9.70;;;7.22;;
23716;SDS011;22094;52.130;5.598;2023-04-24T05:35:03;9.18;;;6.97;;
23716;SDS011;22094;52.130;5.598;2023-04-24T05:37:29;9.75;;;6.97;;
23716;SDS011;22094;52.130;5.598;2023-04-24T05:39:55;9.20;;;6.93;;
23716;SDS011;22094;52.130;5.598;2023-04-24T05:42:21;10.00;;;7.20;;
23716;SDS011;22094;52.130;5.598;2023-04-24T05:44:46;11.25;;;7.35;;
23716;SDS011;22094;52.130;5.598;2023-04-24T05:47:12;11.48;;;7.40;;
23716;SDS011;22094;52.130;5.598;2023-04-24T05:49:37;10.32;;;7.57;;
23716;SDS011;22094;52.130;5.598;2023-04-24T05:52:03;10.30;;;7.70;;
23716;SDS011;22094;52.130;5.598;2023-04-24T05:54:31;9.65;;;7.13;;
23716;SDS011;22094;52.130;5.598;2023-04-24T05:56:56;12.90;;;7.78;;
23716;SDS011;22094;52.130;5.598;2023-04-24T05:59:22;10.07;;;7.10;;
23716;SDS011;22094;52.130;5.598;2023-04-24T06:01:48;10.88;;;6.90;;
23716;SDS011;22094;52.130;5.598;2023-04-24T06:04:13;10.77;;;7.47;;
23716;SDS011;22094;52.130;5.598;2023-04-24T06:06:39;9.80;;;7.43;;
23716;SDS011;22094;52.130;5.598;2023-04-24T06:09:05;10.95;;;7.13;;
23716;SDS011;22094;52.130;5.598;2023-04-24T06:11:31;13.00;;;7.88;;
23716;SDS011;22094;52.130;5.598;2023-04-24T06:13:57;14.55;;;8.45;;
23716;SDS011;22094;52.130;5.598;2023-04-24T06:16:23;9.55;;;7.50;;
23716;SDS011;22094;52.130;5.598;2023-04-24T06:18:48;15.38;;;8.25;;
23716;SDS011;22094;52.130;5.598;2023-04-24T06:21:15;13.98;;;8.20;;
23716;SDS011;22094;52.130;5.598;2023-04-24T06:23:41;16.80;;;8.40;;
23716;SDS011;22094;52.130;5.598;2023-04-24T06:26:07;13.27;;;8.98;;
23716;SDS011;22094;52.130;5.598;2023-04-24T06:28:33;19.65;;;9.27;;
23716;SDS011;22094;52.130;5.598;2023-04-24T06:30:59;17.40;;;8.98;;
23716;SDS011;22094;52.130;5.598;2023-04-24T06:33:24;13.48;;;8.38;;
23716;SDS011;22094;52.130;5.598;2023-04-24T06:35:50;12.32;;;7.20;;
23716;SDS011;22094;52.130;5.598;2023-04-24T06:38:15;13.60;;;7.40;;
23716;SDS011;22094;52.130;5.598;2023-04-24T06:40:41;11.85;;;7.20;;
23716;SDS011;22094;52.130;5.598;2023-04-24T06:43:07;14.05;;;7.70;;
23716;SDS011;22094;52.130;5.598;2023-04-24T06:45:33;11.88;;;6.63;;
23716;SDS011;22094;52.130;5.598;2023-04-24T06:47:58;12.48;;;6.22;;
23716;SDS011;22094;52.130;5.598;2023-04-24T06:50:24;10.68;;;5.30;;
23716;SDS011;22094;52.130;5.598;2023-04-24T06:52:50;10.18;;;5.80;;
23716;SDS011;22094;52.130;5.598;2023-04-24T06:55:15;6.18;;;4.25;;
23716;SDS011;22094;52.130;5.598;2023-04-24T06:57:41;7.18;;;4.53;;
23716;SDS011;22094;52.130;5.598;2023-04-24T07:00:07;10.70;;;6.88;;
23716;SDS011;22094;52.130;5.598;2023-04-24T07:02:34;17.15;;;9.90;;
23716;SDS011;22094;52.130;5.598;2023-04-24T07:05:00;23.90;;;10.35;;
23716;SDS011;22094;52.130;5.598;2023-04-24T07:07:26;26.33;;;14.88;;
23716;SDS011;22094;52.130;5.598;2023-04-24T07:09:52;36.45;;;18.83;;
23716;SDS011;22094;52.130;5.598;2023-04-24T07:12:19;35.40;;;19.08;;
23716;SDS011;22094;52.130;5.598;2023-04-24T07:14:46;34.85;;;16.92;;
23716;SDS011;22094;52.130;5.598;2023-04-24T07:17:12;34.10;;;18.80;;
23716;SDS011;22094;52.130;5.598;2023-04-24T07:19:38;35.50;;;18.60;;
23716;SDS011;22094;52.130;5.598;2023-04-24T07:22:03;31.65;;;18.77;;
23716;SDS011;22094;52.130;5.598;2023-04-24T07:24:29;32.35;;;18.98;;
23716;SDS011;22094;52.130;5.598;2023-04-24T07:26:57;36.80;;;20.35;;
23716;SDS011;22094;52.130;5.598;2023-04-24T07:29:22;38.55;;;20.75;;
23716;SDS011;22094;52.130;5.598;2023-04-24T07:31:48;35.40;;;20.30;;
23716;SDS011;22094;52.130;5.598;2023-04-24T07:34:13;43.05;;;22.35;;
23716;SDS011;22094;52.130;5.598;2023-04-24T07:36:40;42.05;;;22.40;;
23716;SDS011;22094;52.130;5.598;2023-04-24T07:39:06;40.20;;;22.48;;
23716;SDS011;22094;52.130;5.598;2023-04-24T07:41:32;42.88;;;22.30;;
23716;SDS011;22094;52.130;5.598;2023-04-24T07:43:58;40.55;;;22.60;;
23716;SDS011;22094;52.130;5.598;2023-04-24T07:46:23;40.70;;;22.30;;
23716;SDS011;22094;52.130;5.598;2023-04-24T07:48:49;49.90;;;23.70;;
23716;SDS011;22094;52.130;5.598;2023-04-24T07:51:15;50.95;;;24.13;;
23716;SDS011;22094;52.130;5.598;2023-04-24T07:53:41;40.95;;;21.77;;
23716;SDS011;22094;52.130;5.598;2023-04-24T07:56:07;42.47;;;22.65;;
23716;SDS011;22094;52.130;5.598;2023-04-24T07:58:33;39.33;;;20.65;;
23716;SDS011;22094;52.130;5.598;2023-04-24T08:00:59;51.25;;;21.85;;
23716;SDS011;22094;52.130;5.598;2023-04-24T08:03:25;41.40;;;20.70;;
23716;SDS011;22094;52.130;5.598;2023-04-24T08:05:51;43.20;;;21.48;;
23716;SDS011;22094;52.130;5.598;2023-04-24T08:08:16;40.80;;;20.85;;
23716;SDS011;22094;52.130;5.598;2023-04-24T08:10:42;42.60;;;20.40;;
23716;SDS011;22094;52.130;5.598;2023-04-24T08:13:08;41.78;;;20.95;;
23716;SDS011;22094;52.130;5.598;2023-04-24T08:15:34;38.40;;;20.20;;
23716;SDS011;22094;52.130;5.598;2023-04-24T08:17:59;39.08;;;20.77;;
23716;SDS011;22094;52.130;5.598;2023-04-24T08:20:25;36.30;;;20.48;;
23716;SDS011;22094;52.130;5.598;2023-04-24T08:22:51;43.80;;;20.67;;
23716;SDS011;22094;52.130;5.598;2023-04-24T08:25:16;40.53;;;21.13;;
23716;SDS011;22094;52.130;5.598;2023-04-24T08:27:44;42.53;;;22.08;;
23716;SDS011;22094;52.130;5.598;2023-04-24T08:30:09;42.97;;;20.50;;
23716;SDS011;22094;52.130;5.598;2023-04-24T08:32:35;27.23;;;14.57;;
23716;SDS011;22094;52.130;5.598;2023-04-24T08:35:01;36.13;;;15.82;;
23716;SDS011;22094;52.130;5.598;2023-04-24T08:37:28;29.48;;;15.00;;
23716;SDS011;22094;52.130;5.598;2023-04-24T08:39:54;30.42;;;14.35;;
23716;SDS011;22094;52.130;5.598;2023-04-24T08:42:20;37.92;;;14.20;;
23716;SDS011;22094;52.130;5.598;2023-04-24T08:44:46;32.83;;;14.30;;
23716;SDS011;22094;52.130;5.598;2023-04-24T08:47:13;32.75;;;12.63;;
23716;SDS011;22094;52.130;5.598;2023-04-24T08:49:39;27.33;;;12.82;;
23716;SDS011;22094;52.130;5.598;2023-04-24T08:52:05;28.02;;;13.52;;
23716;SDS011;22094;52.130;5.598;2023-04-24T08:54:34;23.13;;;11.13;;
23716;SDS011;22094;52.130;5.598;2023-04-24T08:57:01;25.95;;;11.10;;
23716;SDS011;22094;52.130;5.598;2023-04-24T08:59:28;28.63;;;11.68;;
23716;SDS011;22094;52.130;5.598;2023-04-24T09:01:55;23.92;;;11.32;;
23716;SDS011;22094;52.130;5.598;2023-04-24T09:04:21;36.50;;;13.02;;
23716;SDS011;22094;52.130;5.598;2023-04-24T09:06:49;33.08;;;12.77;;
23716;SDS011;22094;52.130;5.598;2023-04-24T09:09:15;34.38;;;13.60;;
23716;SDS011;22094;52.130;5.598;2023-04-24T09:11:42;30.60;;;13.93;;
23716;SDS011;22094;52.130;5.598;2023-04-24T09:14:09;29.90;;;13.52;;
23716;SDS011;22094;52.130;5.598;2023-04-24T09:16:35;31.83;;;11.73;;
23716;SDS011;22094;52.130;5.598;2023-04-24T09:19:01;34.40;;;11.70;;
23716;SDS011;22094;52.130;5.598;2023-04-24T09:21:31;26.48;;;9.07;;
23716;SDS011;22094;52.130;5.598;2023-04-24T09:23:59;21.20;;;7.13;;
23716;SDS011;22094;52.130;5.598;2023-04-24T09:26:29;23.23;;;7.25;;
23716;SDS011;22094;52.130;5.598;2023-04-24T09:28:56;21.90;;;6.70;;
23716;SDS011;22094;52.130;5.598;2023-04-24T09:31:22;15.65;;;5.97;;
23716;SDS011;22094;52.130;5.598;2023-04-24T09:33:59;19.10;;;6.00;;
23716;SDS011;22094;52.130;5.598;2023-04-24T09:36:29;20.73;;;6.03;;
23716;SDS011;22094;52.130;5.598;2023-04-24T09:38:58;13.75;;;5.63;;
23716;SDS011;22094;52.130;5.598;2023-04-24T09:41:25;18.17;;;6.07;;
23716;SDS011;22094;52.130;5.598;2023-04-24T09:43:55;18.85;;;5.72;;
23716;SDS011;22094;52.130;5.598;2023-04-24T09:46:28;14.30;;;4.50;;
23716;SDS011;22094;52.130;5.598;2023-04-24T09:48:55;16.08;;;4.82;;
23716;SDS011;22094;52.130;5.598;2023-04-24T09:51:24;7.65;;;3.97;;
23716;SDS011;22094;52.130;5.598;2023-04-24T09:54:00;14.10;;;3.95;;
23716;SDS011;22094;52.130;5.598;2023-04-24T09:56:25;10.18;;;3.95;;
23716;SDS011;22094;52.130;5.598;2023-04-24T09:58:51;12.98;;;3.70;;
23716;SDS011;22094;52.130;5.598;2023-04-24T10:01:28;10.65;;;3.97;;
23716;SDS011;22094;52.130;5.598;2023-04-24T10:03:55;7.93;;;3.60;;
23716;SDS011;22094;52.130;5.598;2023-04-24T10:06:21;13.50;;;4.18;;
23716;SDS011;22094;52.130;5.598;2023-04-24T10:08:46;11.02;;;3.22;;
23716;SDS011;22094;52.130;5.598;2023-04-24T10:11:14;11.40;;;3.53;;
23716;SDS011;22094;52.130;5.598;2023-04-24T10:13:40;10.95;;;3.55;;
23716;SDS011;22094;52.130;5.598;2023-04-24T10:16:06;13.02;;;4.53;;
23716;SDS011;22094;52.130;5.598;2023-04-24T10:18:33;15.98;;;4.25;;
23716;SDS011;22094;52.130;5.598;2023-04-24T10:20:59;13.20;;;3.88;;
23716;SDS011;22094;52.130;5.598;2023-04-24T10:23:25;11.00;;;3.90;;
23716;SDS011;22094;52.130;5.598;2023-04-24T10:25:52;9.77;;;3.75;;
23716;SDS011;22094;52.130;5.598;2023-04-24T10:28:19;7.10;;;3.63;;
23716;SDS011;22094;52.130;5.598;2023-04-24T10:30:45;10.48;;;3.20;;
23716;SDS011;22094;52.130;5.598;2023-04-24T10:33:10;9.45;;;3.33;;
23716;SDS011;22094;52.130;5.598;2023-04-24T10:35:39;7.80;;;3.33;;
23716;SDS011;22094;52.130;5.598;2023-04-24T10:38:13;6.10;;;3.42;;
23716;SDS011;22094;52.130;5.598;2023-04-24T10:40:41;12.70;;;3.47;;
23716;SDS011;22094;52.130;5.598;2023-04-24T10:43:07;8.05;;;3.17;;
23716;SDS011;22094;52.130;5.598;2023-04-24T10:45:35;7.38;;;3.17;;
23716;SDS011;22094;52.130;5.598;2023-04-24T10:48:02;6.22;;;2.45;;
23716;SDS011;22094;52.130;5.598;2023-04-24T10:50:45;4.80;;;2.30;;
23716;SDS011;22094;52.130;5.598;2023-04-24T10:53:22;7.38;;;2.40;;
23716;SDS011;22094;52.130;5.598;2023-04-24T10:55:50;4.85;;;1.92;;
23716;SDS011;22094;52.130;5.598;2023-04-24T10:58:21;3.50;;;1.63;;
23716;SDS011;22094;52.130;5.598;2023-04-24T11:00:57;3.17;;;1.42;;
23716;SDS011;22094;52.130;5.598;2023-04-24T11:03:24;6.18;;;1.70;;
23716;SDS011;22094;52.130;5.598;2023-04-24T11:05:58;2.55;;;1.30;;
23716;SDS011;22094;52.130;5.598;2023-04-24T11:10:57;3.70;;;1.45;;
23716;SDS011;22094;52.130;5.598;2023-04-24T11:13:24;2.88;;;1.73;;
23716;SDS011;22094;52.130;5.598;2023-04-24T11:19:38;3.92;;;1.20;;
23716;SDS011;22094;52.130;5.598;2023-04-24T11:21:54;5.97;;;1.50;;
23716;SDS011;22094;52.130;5.598;2023-04-24T11:24:32;5.32;;;1.70;;
23716;SDS011;22094;52.130;5.598;2023-04-24T11:29:38;6.45;;;2.40;;
23716;SDS011;22094;52.130;5.598;2023-04-24T11:32:14;4.70;;;1.83;;
23716;SDS011;22094;52.130;5.598;2023-04-24T11:34:45;8.55;;;2.10;;
23716;SDS011;22094;52.130;5.598;2023-04-24T11:37:12;5.80;;;2.40;;
23716;SDS011;22094;52.130;5.598;2023-04-24T11:39:38;7.05;;;2.30;;
23716;SDS011;22094;52.130;5.598;2023-04-24T11:42:05;6.30;;;2.28;;
23716;SDS011;22094;52.130;5.598;2023-04-24T11:44:32;5.35;;;1.95;;
23716;SDS011;22094;52.130;5.598;2023-04-24T11:46:59;6.30;;;1.92;;
23716;SDS011;22094;52.130;5.598;2023-04-24T11:49:25;6.50;;;1.63;;
23716;SDS011;22094;52.130;5.598;2023-04-24T11:51:54;4.15;;;1.60;;
23716;SDS011;22094;52.130;5.598;2023-04-24T11:54:20;7.40;;;2.05;;
23716;SDS011;22094;52.130;5.598;2023-04-24T11:56:46;4.03;;;1.50;;
23716;SDS011;22094;52.130;5.598;2023-04-24T11:59:12;4.95;;;1.55;;
23716;SDS011;22094;52.130;5.598;2023-04-24T12:01:48;3.80;;;1.50;;
23716;SDS011;22094;52.130;5.598;2023-04-24T12:04:15;4.78;;;1.55;;
23716;SDS011;22094;52.130;5.598;2023-04-24T12:07:01;2.75;;;1.60;;
23716;SDS011;22094;52.130;5.598;2023-04-24T12:09:45;5.20;;;1.50;;
23716;SDS011;22094;52.130;5.598;2023-04-24T12:12:13;4.43;;;1.40;;
23716;SDS011;22094;52.130;5.598;2023-04-24T12:14:52;2.42;;;1.20;;
23716;SDS011;22094;52.130;5.598;2023-04-24T12:17:26;1.45;;;0.98;;
23716;SDS011;22094;52.130;5.598;2023-04-24T12:19:56;2.03;;;1.00;;
23716;SDS011;22094;52.130;5.598;2023-04-24T12:22:24;1.80;;;0.90;;
23716;SDS011;22094;52.130;5.598;2023-04-24T12:25:00;2.63;;;1.10;;
23716;SDS011;22094;52.130;5.598;2023-04-24T12:27:33;4.40;;;1.10;;
23716;SDS011;22094;52.130;5.598;2023-04-24T12:30:00;4.70;;;1.10;;
23716;SDS011;22094;52.130;5.598;2023-04-24T12:32:28;3.70;;;1.38;;
23716;SDS011;22094;52.130;5.598;2023-04-24T12:34:54;3.72;;;1.30;;
23716;SDS011;22094;52.130;5.598;2023-04-24T12:37:20;2.75;;;1.20;;
23716;SDS011;22094;52.130;5.598;2023-04-24T12:40:00;4.55;;;1.50;;
23716;SDS011;22094;52.130;5.598;2023-04-24T12:42:29;6.10;;;1.65;;
23716;SDS011;22094;52.130;5.598;2023-04-24T12:45:01;7.05;;;1.75;;
23716;SDS011;22094;52.130;5.598;2023-04-24T12:47:29;6.43;;;1.70;;
23716;SDS011;22094;52.130;5.598;2023-04-24T12:49:55;3.22;;;1.60;;
23716;SDS011;22094;52.130;5.598;2023-04-24T12:52:24;5.32;;;1.95;;
23716;SDS011;22094;52.130;5.598;2023-04-24T12:54:52;4.88;;;1.80;;
23716;SDS011;22094;52.130;5.598;2023-04-24T12:57:19;6.60;;;1.65;;
23716;SDS011;22094;52.130;5.598;2023-04-24T12:59:45;6.50;;;1.73;;
23716;SDS011;22094;52.130;5.598;2023-04-24T13:02:10;5.90;;;1.70;;
23716;SDS011;22094;52.130;5.598;2023-04-24T13:04:36;4.35;;;1.75;;
23716;SDS011;22094;52.130;5.598;2023-04-24T13:07:02;5.28;;;1.80;;
23716;SDS011;22094;52.130;5.598;2023-04-24T13:09:28;6.75;;;2.42;;
23716;SDS011;22094;52.130;5.598;2023-04-24T13:11:54;10.15;;;2.33;;
23716;SDS011;22094;52.130;5.598;2023-04-24T13:14:21;10.13;;;2.85;;
23716;SDS011;22094;52.130;5.598;2023-04-24T13:16:47;5.32;;;2.50;;
23716;SDS011;22094;52.130;5.598;2023-04-24T13:19:13;10.65;;;2.60;;
23716;SDS011;22094;52.130;5.598;2023-04-24T13:21:38;9.05;;;3.17;;
23716;SDS011;22094;52.130;5.598;2023-04-24T13:24:04;13.15;;;3.10;;
23716;SDS011;22094;52.130;5.598;2023-04-24T13:26:32;14.85;;;3.40;;
23716;SDS011;22094;52.130;5.598;2023-04-24T13:28:58;12.15;;;3.42;;
23716;SDS011;22094;52.130;5.598;2023-04-24T13:31:23;14.07;;;3.80;;
23716;SDS011;22094;52.130;5.598;2023-04-24T13:33:49;14.32;;;3.85;;
23716;SDS011;22094;52.130;5.598;2023-04-24T13:36:15;13.75;;;3.17;;
23716;SDS011;22094;52.130;5.598;2023-04-24T13:38:42;11.88;;;3.47;;
23716;SDS011;22094;52.130;5.598;2023-04-24T13:41:09;10.73;;;3.22;;
23716;SDS011;22094;52.130;5.598;2023-04-24T13:43:35;15.77;;;3.50;;
23716;SDS011;22094;52.130;5.598;2023-04-24T13:46:01;12.75;;;3.28;;
23716;SDS011;22094;52.130;5.598;2023-04-24T13:48:28;18.23;;;3.50;;
23716;SDS011;22094;52.130;5.598;2023-04-24T13:50:54;12.60;;;3.03;;
23716;SDS011;22094;52.130;5.598;2023-04-24T13:53:20;15.23;;;3.47;;
23716;SDS011;22094;52.130;5.598;2023-04-24T13:55:45;6.32;;;2.42;;
23716;SDS011;22094;52.130;5.598;2023-04-24T13:58:11;9.10;;;2.97;;
23716;SDS011;22094;52.130;5.598;2023-04-24T14:00:37;10.27;;;3.13;;
23716;SDS011;22094;52.130;5.598;2023-04-24T14:03:03;12.00;;;3.03;;
23716;SDS011;22094;52.130;5.598;2023-04-24T14:05:29;8.57;;;3.17;;
23716;SDS011;22094;52.130;5.598;2023-04-24T14:07:54;8.18;;;2.72;;
23716;SDS011;22094;52.130;5.598;2023-04-24T14:10:20;14.45;;;3.20;;
23716;SDS011;22094;52.130;5.598;2023-04-24T14:12:46;13.15;;;4.05;;
23716;SDS011;22094;52.130;5.598;2023-04-24T14:15:12;13.02;;;3.88;;
23716;SDS011;22094;52.130;5.598;2023-04-24T14:17:38;10.80;;;3.33;;
23716;SDS011;22094;52.130;5.598;2023-04-24T14:20:04;10.75;;;3.03;;
23716;SDS011;22094;52.130;5.598;2023-04-24T14:22:31;10.20;;;2.92;;
23716;SDS011;22094;52.130;5.598;2023-04-24T14:24:57;15.90;;;3.20;;
23716;SDS011;22094;52.130;5.598;2023-04-24T14:27:24;11.38;;;4.00;;
23716;SDS011;22094;52.130;5.598;2023-04-24T14:29:50;9.57;;;3.03;;
23716;SDS011;22094;52.130;5.598;2023-04-24T14:32:15;11.18;;;3.22;;
23716;SDS011;22094;52.130;5.598;2023-04-24T14:34:41;7.05;;;3.13;;
23716;SDS011;22094;52.130;5.598;2023-04-24T14:37:07;8.75;;;3.10;;
23716;SDS011;22094;52.130;5.598;2023-04-24T14:39:33;11.45;;;3.90;;
23716;SDS011;22094;52.130;5.598;2023-04-24T14:41:58;13.48;;;3.47;;